首页
METAR-TAF:

METAR-TAF

机场 :

Galesburg Municipal Airport

盖尔斯堡, 伊利诺伊州, 美国

纬度: 40-56-17N, 经度: 090-25-52W, 海拔: 233米

当前天气观测

该预报发布于25分钟前的18:55 UTC
风速7节,风向北转西北
温度 27°C
湿度 66%
气压 1015 hPa
能見度: 16.1公里
多云层高于2100英尺

METAR: KGBG 151855Z AUTO 33007KT 10SM BKN021 27/20 A2998 RMK AO2 T02650201

时间: 14:20 (19:20 UTC)


TAF: 丢失

超过4000个机场的气象观测和天气预报(METAR&TAF报告)。

可查询的气象台以黄色和红色小点在地图上表示。

将鼠标移到小点上方,可查看气象台名称。

然后点击查看天气观测和预报。

如需切换地图:点击带黑十字的绿色按钮放大地图;点击带横线的绿色按钮缩小地图;或者点击绿色箭头查看邻近地区的地图。


METAR-TAF: